sensor_id;sensor_type;location;lat;lon;timestamp;P1;durP1;ratioP1;P2;durP2;ratioP2
7843;SDS011;3967;48.702;9.326;2023-01-01T00:00:14;125.93;;;86.60;;
7843;SDS011;3967;48.702;9.326;2023-01-01T00:02:40;78.37;;;56.57;;
7843;SDS011;3967;48.702;9.326;2023-01-01T00:05:07;71.20;;;52.90;;
7843;SDS011;3967;48.702;9.326;2023-01-01T00:07:34;66.33;;;48.83;;
7843;SDS011;3967;48.702;9.326;2023-01-01T00:10:01;66.80;;;48.13;;
7843;SDS011;3967;48.702;9.326;2023-01-01T00:12:46;55.00;;;39.00;;
7843;SDS011;3967;48.702;9.326;2023-01-01T00:15:13;45.10;;;31.90;;
7843;SDS011;3967;48.702;9.326;2023-01-01T00:17:40;39.60;;;27.87;;
7843;SDS011;3967;48.702;9.326;2023-01-01T00:20:07;34.60;;;23.63;;
7843;SDS011;3967;48.702;9.326;2023-01-01T00:22:34;28.80;;;21.10;;
7843;SDS011;3967;48.702;9.326;2023-01-01T00:25:19;28.83;;;21.77;;
7843;SDS011;3967;48.702;9.326;2023-01-01T00:27:46;32.87;;;24.17;;
7843;SDS011;3967;48.702;9.326;2023-01-01T00:30:13;31.73;;;22.73;;
7843;SDS011;3967;48.702;9.326;2023-01-01T00:32:40;31.80;;;22.30;;
7843;SDS011;3967;48.702;9.326;2023-01-01T00:35:07;29.90;;;21.73;;
7843;SDS011;3967;48.702;9.326;2023-01-01T00:37:34;30.20;;;21.80;;
7843;SDS011;3967;48.702;9.326;2023-01-01T00:40:00;31.70;;;22.10;;
7843;SDS011;3967;48.702;9.326;2023-01-01T00:42:28;29.20;;;21.40;;
7843;SDS011;3967;48.702;9.326;2023-01-01T00:44:54;31.70;;;21.93;;
7843;SDS011;3967;48.702;9.326;2023-01-01T00:47:21;30.23;;;21.03;;
7843;SDS011;3967;48.702;9.326;2023-01-01T00:49:47;32.17;;;22.70;;
7843;SDS011;3967;48.702;9.326;2023-01-01T00:52:14;35.17;;;25.33;;
7843;SDS011;3967;48.702;9.326;2023-01-01T00:54:41;34.83;;;23.97;;
7843;SDS011;3967;48.702;9.326;2023-01-01T00:57:07;32.27;;;23.13;;
7843;SDS011;3967;48.702;9.326;2023-01-01T00:59:34;38.23;;;28.40;;
7843;SDS011;3967;48.702;9.326;2023-01-01T01:02:01;38.27;;;26.17;;
7843;SDS011;3967;48.702;9.326;2023-01-01T01:04:28;40.40;;;26.73;;
7843;SDS011;3967;48.702;9.326;2023-01-01T01:06:55;38.03;;;27.40;;
7843;SDS011;3967;48.702;9.326;2023-01-01T01:09:21;42.37;;;28.83;;
7843;SDS011;3967;48.702;9.326;2023-01-01T01:11:48;37.20;;;27.57;;
7843;SDS011;3967;48.702;9.326;2023-01-01T01:14:15;43.40;;;29.00;;
7843;SDS011;3967;48.702;9.326;2023-01-01T01:16:41;55.17;;;37.80;;
7843;SDS011;3967;48.702;9.326;2023-01-01T01:19:09;66.23;;;47.17;;
7843;SDS011;3967;48.702;9.326;2023-01-01T01:21:40;51.53;;;37.73;;
7843;SDS011;3967;48.702;9.326;2023-01-01T01:24:08;47.83;;;35.07;;
7843;SDS011;3967;48.702;9.326;2023-01-01T01:26:35;53.20;;;36.63;;
7843;SDS011;3967;48.702;9.326;2023-01-01T01:29:02;49.87;;;36.27;;
7843;SDS011;3967;48.702;9.326;2023-01-01T01:31:29;46.83;;;34.37;;
7843;SDS011;3967;48.702;9.326;2023-01-01T01:33:57;45.97;;;33.50;;
7843;SDS011;3967;48.702;9.326;2023-01-01T01:36:26;47.27;;;33.17;;
7843;SDS011;3967;48.702;9.326;2023-01-01T01:38:53;48.53;;;34.50;;
7843;SDS011;3967;48.702;9.326;2023-01-01T01:41:21;42.23;;;31.10;;
7843;SDS011;3967;48.702;9.326;2023-01-01T01:44:02;46.63;;;32.93;;
7843;SDS011;3967;48.702;9.326;2023-01-01T01:46:49;45.83;;;32.10;;
7843;SDS011;3967;48.702;9.326;2023-01-01T01:49:17;44.43;;;30.73;;
7843;SDS011;3967;48.702;9.326;2023-01-01T01:51:51;42.07;;;28.30;;
7843;SDS011;3967;48.702;9.326;2023-01-01T01:54:20;42.83;;;30.00;;
7843;SDS011;3967;48.702;9.326;2023-01-01T01:59:29;43.90;;;30.13;;
7843;SDS011;3967;48.702;9.326;2023-01-01T02:01:59;41.43;;;29.53;;
7843;SDS011;3967;48.702;9.326;2023-01-01T02:04:27;39.60;;;27.90;;
7843;SDS011;3967;48.702;9.326;2023-01-01T02:06:54;52.57;;;33.90;;
7843;SDS011;3967;48.702;9.326;2023-01-01T02:09:21;45.67;;;29.80;;
7843;SDS011;3967;48.702;9.326;2023-01-01T02:11:48;40.60;;;27.80;;
7843;SDS011;3967;48.702;9.326;2023-01-01T02:14:15;34.13;;;25.73;;
7843;SDS011;3967;48.702;9.326;2023-01-01T02:16:42;32.63;;;23.33;;
7843;SDS011;3967;48.702;9.326;2023-01-01T02:28:37;26.23;;;19.10;;
7843;SDS011;3967;48.702;9.326;2023-01-01T02:31:48;25.67;;;19.67;;
7843;SDS011;3967;48.702;9.326;2023-01-01T02:34:37;29.17;;;19.43;;
7843;SDS011;3967;48.702;9.326;2023-01-01T02:37:21;26.03;;;18.47;;
7843;SDS011;3967;48.702;9.326;2023-01-01T02:39:54;24.97;;;18.67;;
7843;SDS011;3967;48.702;9.326;2023-01-01T02:42:57;21.60;;;16.13;;
7843;SDS011;3967;48.702;9.326;2023-01-01T02:45:24;22.50;;;17.40;;
7843;SDS011;3967;48.702;9.326;2023-01-01T02:47:51;21.53;;;16.67;;
7843;SDS011;3967;48.702;9.326;2023-01-01T02:50:20;23.43;;;16.37;;
7843;SDS011;3967;48.702;9.326;2023-01-01T02:55:49;21.20;;;15.00;;
7843;SDS011;3967;48.702;9.326;2023-01-01T02:58:34;19.07;;;14.20;;
7843;SDS011;3967;48.702;9.326;2023-01-01T03:01:33;16.00;;;11.63;;
7843;SDS011;3967;48.702;9.326;2023-01-01T03:04:07;14.40;;;10.70;;
7843;SDS011;3967;48.702;9.326;2023-01-01T03:06:48;12.53;;;9.73;;
7843;SDS011;3967;48.702;9.326;2023-01-01T03:14:52;10.33;;;7.53;;
7843;SDS011;3967;48.702;9.326;2023-01-01T03:20:07;8.97;;;7.20;;
7843;SDS011;3967;48.702;9.326;2023-01-01T03:22:39;9.90;;;6.53;;
7843;SDS011;3967;48.702;9.326;2023-01-01T03:27:40;8.47;;;6.20;;
7843;SDS011;3967;48.702;9.326;2023-01-01T03:30:11;8.40;;;6.30;;
7843;SDS011;3967;48.702;9.326;2023-01-01T03:32:43;7.70;;;6.47;;
7843;SDS011;3967;48.702;9.326;2023-01-01T03:38:05;8.93;;;6.40;;
7843;SDS011;3967;48.702;9.326;2023-01-01T03:40:35;8.27;;;5.80;;
7843;SDS011;3967;48.702;9.326;2023-01-01T03:43:09;9.20;;;6.53;;
7843;SDS011;3967;48.702;9.326;2023-01-01T03:45:40;8.27;;;6.57;;
7843;SDS011;3967;48.702;9.326;2023-01-01T03:48:10;8.53;;;6.70;;
7843;SDS011;3967;48.702;9.326;2023-01-01T03:53:35;6.13;;;5.53;;
7843;SDS011;3967;48.702;9.326;2023-01-01T03:56:18;7.80;;;6.37;;
7843;SDS011;3967;48.702;9.326;2023-01-01T03:59:15;8.07;;;5.40;;
7843;SDS011;3967;48.702;9.326;2023-01-01T04:01:48;9.17;;;6.43;;
7843;SDS011;3967;48.702;9.326;2023-01-01T04:04:18;7.53;;;5.80;;
7843;SDS011;3967;48.702;9.326;2023-01-01T04:06:45;6.67;;;4.90;;
7843;SDS011;3967;48.702;9.326;2023-01-01T04:09:14;6.37;;;4.57;;
7843;SDS011;3967;48.702;9.326;2023-01-01T04:11:44;5.47;;;4.30;;
7843;SDS011;3967;48.702;9.326;2023-01-01T04:16:58;5.47;;;4.20;;
7843;SDS011;3967;48.702;9.326;2023-01-01T04:19:25;4.93;;;4.37;;
7843;SDS011;3967;48.702;9.326;2023-01-01T04:21:52;6.23;;;4.50;;
7843;SDS011;3967;48.702;9.326;2023-01-01T04:24:19;7.53;;;4.70;;
7843;SDS011;3967;48.702;9.326;2023-01-01T04:26:47;5.77;;;4.50;;
7843;SDS011;3967;48.702;9.326;2023-01-01T04:29:13;4.47;;;4.07;;
7843;SDS011;3967;48.702;9.326;2023-01-01T04:31:40;7.43;;;4.60;;
7843;SDS011;3967;48.702;9.326;2023-01-01T04:34:07;6.07;;;4.67;;
7843;SDS011;3967;48.702;9.326;2023-01-01T04:36:34;8.97;;;4.60;;
7843;SDS011;3967;48.702;9.326;2023-01-01T04:39:01;5.40;;;4.47;;
7843;SDS011;3967;48.702;9.326;2023-01-01T04:41:27;6.13;;;5.00;;
7843;SDS011;3967;48.702;9.326;2023-01-01T04:43:54;7.27;;;4.57;;
7843;SDS011;3967;48.702;9.326;2023-01-01T04:46:21;5.30;;;4.43;;
7843;SDS011;3967;48.702;9.326;2023-01-01T04:48:49;4.97;;;4.13;;
7843;SDS011;3967;48.702;9.326;2023-01-01T04:51:16;6.10;;;4.03;;
7843;SDS011;3967;48.702;9.326;2023-01-01T04:53:44;4.90;;;3.63;;
7843;SDS011;3967;48.702;9.326;2023-01-01T04:56:20;4.37;;;3.93;;
7843;SDS011;3967;48.702;9.326;2023-01-01T04:58:47;5.83;;;4.23;;
7843;SDS011;3967;48.702;9.326;2023-01-01T05:01:16;5.70;;;4.50;;
7843;SDS011;3967;48.702;9.326;2023-01-01T05:03:54;4.47;;;3.70;;
7843;SDS011;3967;48.702;9.326;2023-01-01T05:06:22;4.37;;;3.60;;
7843;SDS011;3967;48.702;9.326;2023-01-01T05:08:49;4.10;;;3.70;;
7843;SDS011;3967;48.702;9.326;2023-01-01T05:11:18;4.83;;;3.90;;
7843;SDS011;3967;48.702;9.326;2023-01-01T05:13:47;4.70;;;4.07;;
7843;SDS011;3967;48.702;9.326;2023-01-01T05:16:16;4.57;;;4.13;;
7843;SDS011;3967;48.702;9.326;2023-01-01T05:18:46;5.07;;;4.23;;
7843;SDS011;3967;48.702;9.326;2023-01-01T05:21:17;5.90;;;4.10;;
7843;SDS011;3967;48.702;9.326;2023-01-01T05:23:46;5.30;;;4.13;;
7843;SDS011;3967;48.702;9.326;2023-01-01T05:26:14;4.97;;;3.87;;
7843;SDS011;3967;48.702;9.326;2023-01-01T05:28:42;5.63;;;4.17;;
7843;SDS011;3967;48.702;9.326;2023-01-01T05:31:13;5.93;;;4.17;;
7843;SDS011;3967;48.702;9.326;2023-01-01T05:33:42;6.30;;;4.20;;
7843;SDS011;3967;48.702;9.326;2023-01-01T05:36:09;4.57;;;3.87;;
7843;SDS011;3967;48.702;9.326;2023-01-01T05:38:40;6.47;;;4.43;;
7843;SDS011;3967;48.702;9.326;2023-01-01T05:41:08;5.20;;;4.13;;
7843;SDS011;3967;48.702;9.326;2023-01-01T05:43:37;6.07;;;4.63;;
7843;SDS011;3967;48.702;9.326;2023-01-01T05:46:05;6.03;;;4.03;;
7843;SDS011;3967;48.702;9.326;2023-01-01T05:48:34;6.50;;;4.47;;
7843;SDS011;3967;48.702;9.326;2023-01-01T05:51:02;6.67;;;4.60;;
7843;SDS011;3967;48.702;9.326;2023-01-01T05:53:31;7.13;;;4.33;;
7843;SDS011;3967;48.702;9.326;2023-01-01T05:55:58;8.03;;;5.37;;
7843;SDS011;3967;48.702;9.326;2023-01-01T05:58:25;7.50;;;4.90;;
7843;SDS011;3967;48.702;9.326;2023-01-01T06:00:53;6.43;;;5.03;;
7843;SDS011;3967;48.702;9.326;2023-01-01T06:03:21;8.53;;;5.47;;
7843;SDS011;3967;48.702;9.326;2023-01-01T06:05:48;7.83;;;5.30;;
7843;SDS011;3967;48.702;9.326;2023-01-01T06:08:14;9.27;;;5.20;;
7843;SDS011;3967;48.702;9.326;2023-01-01T06:10:41;6.57;;;4.90;;
7843;SDS011;3967;48.702;9.326;2023-01-01T06:13:07;5.60;;;4.57;;
7843;SDS011;3967;48.702;9.326;2023-01-01T06:15:38;6.67;;;4.50;;
7843;SDS011;3967;48.702;9.326;2023-01-01T06:18:05;8.67;;;4.40;;
7843;SDS011;3967;48.702;9.326;2023-01-01T06:20:32;5.13;;;4.20;;
7843;SDS011;3967;48.702;9.326;2023-01-01T06:22:58;4.80;;;4.00;;
7843;SDS011;3967;48.702;9.326;2023-01-01T06:25:25;4.87;;;3.70;;
7843;SDS011;3967;48.702;9.326;2023-01-01T06:27:52;3.83;;;3.27;;
7843;SDS011;3967;48.702;9.326;2023-01-01T06:30:18;5.57;;;3.73;;
7843;SDS011;3967;48.702;9.326;2023-01-01T06:32:45;4.63;;;3.87;;
7843;SDS011;3967;48.702;9.326;2023-01-01T06:35:12;4.33;;;3.60;;
7843;SDS011;3967;48.702;9.326;2023-01-01T06:37:38;4.30;;;3.50;;
7843;SDS011;3967;48.702;9.326;2023-01-01T06:40:05;3.87;;;3.43;;
7843;SDS011;3967;48.702;9.326;2023-01-01T06:42:32;3.73;;;3.27;;
7843;SDS011;3967;48.702;9.326;2023-01-01T06:44:59;6.73;;;4.27;;
7843;SDS011;3967;48.702;9.326;2023-01-01T06:47:26;6.37;;;4.47;;
7843;SDS011;3967;48.702;9.326;2023-01-01T06:49:52;6.77;;;4.63;;
7843;SDS011;3967;48.702;9.326;2023-01-01T06:52:19;6.03;;;4.80;;
7843;SDS011;3967;48.702;9.326;2023-01-01T06:54:46;8.83;;;6.37;;
7843;SDS011;3967;48.702;9.326;2023-01-01T06:57:12;22.63;;;17.43;;
7843;SDS011;3967;48.702;9.326;2023-01-01T06:59:39;35.57;;;26.60;;
7843;SDS011;3967;48.702;9.326;2023-01-01T07:02:08;37.03;;;25.50;;
7843;SDS011;3967;48.702;9.326;2023-01-01T07:04:38;34.73;;;24.00;;
7843;SDS011;3967;48.702;9.326;2023-01-01T07:07:04;23.30;;;17.80;;
7843;SDS011;3967;48.702;9.326;2023-01-01T07:09:31;23.93;;;16.63;;
7843;SDS011;3967;48.702;9.326;2023-01-01T07:11:58;14.17;;;10.70;;
7843;SDS011;3967;48.702;9.326;2023-01-01T07:14:24;16.93;;;13.13;;
7843;SDS011;3967;48.702;9.326;2023-01-01T07:16:51;18.87;;;14.03;;
7843;SDS011;3967;48.702;9.326;2023-01-01T07:19:18;25.03;;;17.90;;
7843;SDS011;3967;48.702;9.326;2023-01-01T07:21:51;26.57;;;18.90;;
7843;SDS011;3967;48.702;9.326;2023-01-01T07:24:19;18.53;;;13.97;;
7843;SDS011;3967;48.702;9.326;2023-01-01T07:26:47;19.47;;;15.00;;
7843;SDS011;3967;48.702;9.326;2023-01-01T07:29:14;17.17;;;13.97;;
7843;SDS011;3967;48.702;9.326;2023-01-01T07:31:41;16.53;;;12.90;;
7843;SDS011;3967;48.702;9.326;2023-01-01T07:34:13;17.53;;;11.87;;
7843;SDS011;3967;48.702;9.326;2023-01-01T07:36:44;17.13;;;12.50;;
7843;SDS011;3967;48.702;9.326;2023-01-01T07:39:11;18.60;;;12.07;;
7843;SDS011;3967;48.702;9.326;2023-01-01T07:41:38;19.60;;;13.40;;
7843;SDS011;3967;48.702;9.326;2023-01-01T07:44:05;16.00;;;12.10;;
7843;SDS011;3967;48.702;9.326;2023-01-01T07:46:35;15.50;;;12.30;;
7843;SDS011;3967;48.702;9.326;2023-01-01T07:49:02;16.13;;;11.57;;
7843;SDS011;3967;48.702;9.326;2023-01-01T07:51:30;13.20;;;10.33;;
7843;SDS011;3967;48.702;9.326;2023-01-01T07:53:56;15.83;;;11.57;;
7843;SDS011;3967;48.702;9.326;2023-01-01T07:56:32;16.80;;;12.60;;
7843;SDS011;3967;48.702;9.326;2023-01-01T07:59:00;17.63;;;13.27;;
7843;SDS011;3967;48.702;9.326;2023-01-01T08:01:27;19.43;;;13.80;;
7843;SDS011;3967;48.702;9.326;2023-01-01T08:03:54;15.73;;;12.57;;
7843;SDS011;3967;48.702;9.326;2023-01-01T08:06:20;16.27;;;11.77;;
7843;SDS011;3967;48.702;9.326;2023-01-01T08:08:47;15.93;;;11.93;;
7843;SDS011;3967;48.702;9.326;2023-01-01T08:11:14;17.43;;;13.37;;
7843;SDS011;3967;48.702;9.326;2023-01-01T08:13:41;15.37;;;12.43;;
7843;SDS011;3967;48.702;9.326;2023-01-01T08:16:08;16.30;;;13.07;;
7843;SDS011;3967;48.702;9.326;2023-01-01T08:18:35;14.03;;;11.60;;
7843;SDS011;3967;48.702;9.326;2023-01-01T08:21:02;14.40;;;11.37;;
7843;SDS011;3967;48.702;9.326;2023-01-01T08:23:30;17.03;;;11.63;;
7843;SDS011;3967;48.702;9.326;2023-01-01T08:25:57;14.47;;;10.80;;
7843;SDS011;3967;48.702;9.326;2023-01-01T08:28:25;15.13;;;11.67;;
7843;SDS011;3967;48.702;9.326;2023-01-01T08:30:51;16.77;;;11.10;;
7843;SDS011;3967;48.702;9.326;2023-01-01T08:33:18;13.93;;;10.33;;
7843;SDS011;3967;48.702;9.326;2023-01-01T08:35:45;11.73;;;8.77;;
7843;SDS011;3967;48.702;9.326;2023-01-01T08:38:19;11.27;;;8.63;;
7843;SDS011;3967;48.702;9.326;2023-01-01T08:40:46;11.70;;;7.90;;
7843;SDS011;3967;48.702;9.326;2023-01-01T08:43:12;9.43;;;7.43;;
7843;SDS011;3967;48.702;9.326;2023-01-01T08:45:39;11.67;;;8.20;;
7843;SDS011;3967;48.702;9.326;2023-01-01T08:48:06;10.90;;;7.17;;
7843;SDS011;3967;48.702;9.326;2023-01-01T08:50:33;8.77;;;6.93;;
7843;SDS011;3967;48.702;9.326;2023-01-01T08:53:00;10.63;;;7.37;;
7843;SDS011;3967;48.702;9.326;2023-01-01T08:55:26;8.70;;;6.37;;
7843;SDS011;3967;48.702;9.326;2023-01-01T08:57:54;10.03;;;6.93;;
7843;SDS011;3967;48.702;9.326;2023-01-01T09:00:21;7.47;;;6.47;;
7843;SDS011;3967;48.702;9.326;2023-01-01T09:02:47;10.10;;;7.53;;
7843;SDS011;3967;48.702;9.326;2023-01-01T09:05:14;10.90;;;7.60;;
7843;SDS011;3967;48.702;9.326;2023-01-01T09:07:41;9.17;;;6.20;;
7843;SDS011;3967;48.702;9.326;2023-01-01T09:10:08;8.40;;;6.93;;
7843;SDS011;3967;48.702;9.326;2023-01-01T09:12:34;8.53;;;7.10;;
7843;SDS011;3967;48.702;9.326;2023-01-01T09:15:01;10.43;;;7.87;;
7843;SDS011;3967;48.702;9.326;2023-01-01T09:17:28;12.00;;;8.53;;
7843;SDS011;3967;48.702;9.326;2023-01-01T09:19:55;11.50;;;8.00;;
7843;SDS011;3967;48.702;9.326;2023-01-01T09:22:30;12.07;;;8.27;;
7843;SDS011;3967;48.702;9.326;2023-01-01T09:24:58;10.90;;;9.07;;
7843;SDS011;3967;48.702;9.326;2023-01-01T09:27:28;12.20;;;8.77;;
7843;SDS011;3967;48.702;9.326;2023-01-01T09:29:54;12.93;;;9.60;;
7843;SDS011;3967;48.702;9.326;2023-01-01T09:32:21;12.10;;;8.13;;
7843;SDS011;3967;48.702;9.326;2023-01-01T09:34:49;11.60;;;9.17;;
7843;SDS011;3967;48.702;9.326;2023-01-01T09:37:17;17.47;;;12.87;;
7843;SDS011;3967;48.702;9.326;2023-01-01T09:39:44;25.67;;;18.13;;
7843;SDS011;3967;48.702;9.326;2023-01-01T09:47:39;12.73;;;8.67;;
7843;SDS011;3967;48.702;9.326;2023-01-01T09:50:09;15.10;;;10.03;;
7843;SDS011;3967;48.702;9.326;2023-01-01T09:55:26;22.47;;;17.50;;
7843;SDS011;3967;48.702;9.326;2023-01-01T09:57:55;27.07;;;18.70;;
7843;SDS011;3967;48.702;9.326;2023-01-01T10:00:23;21.03;;;16.17;;
7843;SDS011;3967;48.702;9.326;2023-01-01T10:03:15;17.23;;;13.50;;
7843;SDS011;3967;48.702;9.326;2023-01-01T10:05:54;13.67;;;11.40;;
7843;SDS011;3967;48.702;9.326;2023-01-01T10:08:36;14.10;;;9.93;;
7843;SDS011;3967;48.702;9.326;2023-01-01T10:13:44;11.07;;;9.27;;
7843;SDS011;3967;48.702;9.326;2023-01-01T10:18:54;9.03;;;7.53;;
7843;SDS011;3967;48.702;9.326;2023-01-01T10:21:29;10.10;;;7.90;;
7843;SDS011;3967;48.702;9.326;2023-01-01T10:27:47;8.27;;;6.20;;
7843;SDS011;3967;48.702;9.326;2023-01-01T10:30:22;8.77;;;6.30;;
7843;SDS011;3967;48.702;9.326;2023-01-01T10:32:51;7.30;;;5.37;;
7843;SDS011;3967;48.702;9.326;2023-01-01T10:35:22;8.33;;;5.23;;
7843;SDS011;3967;48.702;9.326;2023-01-01T10:38:01;7.83;;;5.63;;
7843;SDS011;3967;48.702;9.326;2023-01-01T10:40:29;7.03;;;4.70;;
7843;SDS011;3967;48.702;9.326;2023-01-01T10:42:59;7.23;;;5.30;;
7843;SDS011;3967;48.702;9.326;2023-01-01T10:45:35;6.50;;;5.10;;
7843;SDS011;3967;48.702;9.326;2023-01-01T10:53:18;4.60;;;3.67;;
7843;SDS011;3967;48.702;9.326;2023-01-01T10:55:49;6.07;;;4.00;;
7843;SDS011;3967;48.702;9.326;2023-01-01T10:58:24;7.23;;;4.27;;
7843;SDS011;3967;48.702;9.326;2023-01-01T11:04:02;5.17;;;3.23;;
7843;SDS011;3967;48.702;9.326;2023-01-01T11:06:45;5.13;;;3.33;;
7843;SDS011;3967;48.702;9.326;2023-01-01T11:09:25;3.43;;;3.03;;
7843;SDS011;3967;48.702;9.326;2023-01-01T11:11:54;4.73;;;3.10;;
7843;SDS011;3967;48.702;9.326;2023-01-01T11:14:36;3.23;;;2.60;;
7843;SDS011;3967;48.702;9.326;2023-01-01T11:17:03;3.03;;;2.63;;
7843;SDS011;3967;48.702;9.326;2023-01-01T11:19:31;5.10;;;2.47;;
7843;SDS011;3967;48.702;9.326;2023-01-01T11:22:02;5.07;;;3.20;;
7843;SDS011;3967;48.702;9.326;2023-01-01T11:24:33;7.43;;;3.20;;
7843;SDS011;3967;48.702;9.326;2023-01-01T11:29:46;7.70;;;4.77;;
7843;SDS011;3967;48.702;9.326;2023-01-01T11:32:18;5.60;;;4.30;;
7843;SDS011;3967;48.702;9.326;2023-01-01T11:34:57;6.50;;;4.13;;
7843;SDS011;3967;48.702;9.326;2023-01-01T11:37:31;6.90;;;4.07;;
7843;SDS011;3967;48.702;9.326;2023-01-01T11:40:15;6.57;;;3.83;;
7843;SDS011;3967;48.702;9.326;2023-01-01T11:42:49;4.97;;;2.57;;
7843;SDS011;3967;48.702;9.326;2023-01-01T11:45:25;3.10;;;2.23;;
7843;SDS011;3967;48.702;9.326;2023-01-01T11:48:03;4.93;;;2.60;;
7843;SDS011;3967;48.702;9.326;2023-01-01T11:50:40;3.03;;;2.50;;
7843;SDS011;3967;48.702;9.326;2023-01-01T11:53:26;2.73;;;2.03;;
7843;SDS011;3967;48.702;9.326;2023-01-01T12:01:31;3.13;;;2.00;;
7843;SDS011;3967;48.702;9.326;2023-01-01T12:04:27;4.13;;;2.17;;
7843;SDS011;3967;48.702;9.326;2023-01-01T12:07:06;3.73;;;2.10;;
7843;SDS011;3967;48.702;9.326;2023-01-01T12:09:51;5.37;;;1.90;;
7843;SDS011;3967;48.702;9.326;2023-01-01T12:20:12;3.67;;;1.60;;
7843;SDS011;3967;48.702;9.326;2023-01-01T12:23:06;3.73;;;1.60;;
7843;SDS011;3967;48.702;9.326;2023-01-01T12:25:43;3.83;;;1.87;;
7843;SDS011;3967;48.702;9.326;2023-01-01T12:33:48;2.43;;;1.57;;
7843;SDS011;3967;48.702;9.326;2023-01-01T12:36:46;5.67;;;1.73;;
7843;SDS011;3967;48.702;9.326;2023-01-01T12:42:02;3.03;;;1.70;;
7843;SDS011;3967;48.702;9.326;2023-01-01T12:47:35;2.27;;;1.37;;
7843;SDS011;3967;48.702;9.326;2023-01-01T12:55:43;5.67;;;2.10;;
7843;SDS011;3967;48.702;9.326;2023-01-01T12:58:17;3.43;;;2.07;;
7843;SDS011;3967;48.702;9.326;2023-01-01T13:00:59;11.53;;;7.80;;
7843;SDS011;3967;48.702;9.326;2023-01-01T13:03:33;13.47;;;9.13;;
7843;SDS011;3967;48.702;9.326;2023-01-01T13:06:06;11.07;;;8.50;;
7843;SDS011;3967;48.702;9.326;2023-01-01T13:08:37;12.60;;;8.97;;
7843;SDS011;3967;48.702;9.326;2023-01-01T13:11:07;12.83;;;7.90;;
7843;SDS011;3967;48.702;9.326;2023-01-01T13:13:35;11.27;;;8.57;;
7843;SDS011;3967;48.702;9.326;2023-01-01T13:16:02;11.47;;;8.60;;
7843;SDS011;3967;48.702;9.326;2023-01-01T13:18:32;11.03;;;8.27;;
7843;SDS011;3967;48.702;9.326;2023-01-01T13:21:03;9.93;;;7.43;;
7843;SDS011;3967;48.702;9.326;2023-01-01T13:28:43;8.67;;;6.73;;
7843;SDS011;3967;48.702;9.326;2023-01-01T13:31:16;7.90;;;6.40;;
7843;SDS011;3967;48.702;9.326;2023-01-01T13:33:43;7.67;;;5.10;;
7843;SDS011;3967;48.702;9.326;2023-01-01T13:41:59;8.83;;;6.33;;
7843;SDS011;3967;48.702;9.326;2023-01-01T13:44:10;9.67;;;6.43;;
7843;SDS011;3967;48.702;9.326;2023-01-01T13:57:47;8.80;;;4.43;;
7843;SDS011;3967;48.702;9.326;2023-01-01T14:03:32;4.87;;;3.80;;
7843;SDS011;3967;48.702;9.326;2023-01-01T14:06:09;9.83;;;3.70;;
7843;SDS011;3967;48.702;9.326;2023-01-01T14:08:41;4.70;;;3.63;;
7843;SDS011;3967;48.702;9.326;2023-01-01T14:11:18;9.73;;;3.90;;
7843;SDS011;3967;48.702;9.326;2023-01-01T14:13:46;7.23;;;3.70;;
7843;SDS011;3967;48.702;9.326;2023-01-01T14:16:13;8.90;;;4.93;;
7843;SDS011;3967;48.702;9.326;2023-01-01T14:18:45;7.67;;;4.23;;
7843;SDS011;3967;48.702;9.326;2023-01-01T14:21:14;6.30;;;4.23;;
7843;SDS011;3967;48.702;9.326;2023-01-01T14:23:55;6.23;;;4.20;;
7843;SDS011;3967;48.702;9.326;2023-01-01T14:26:25;7.67;;;4.07;;
7843;SDS011;3967;48.702;9.326;2023-01-01T14:29:01;7.80;;;4.00;;
7843;SDS011;3967;48.702;9.326;2023-01-01T14:31:38;7.10;;;3.40;;
7843;SDS011;3967;48.702;9.326;2023-01-01T14:36:51;4.67;;;3.00;;
7843;SDS011;3967;48.702;9.326;2023-01-01T14:39:29;5.90;;;3.37;;
7843;SDS011;3967;48.702;9.326;2023-01-01T14:44:37;4.50;;;3.40;;
7843;SDS011;3967;48.702;9.326;2023-01-01T14:47:17;5.30;;;3.03;;
7843;SDS011;3967;48.702;9.326;2023-01-01T14:49:51;5.07;;;3.20;;
7843;SDS011;3967;48.702;9.326;2023-01-01T14:54:54;5.27;;;3.17;;
7843;SDS011;3967;48.702;9.326;2023-01-01T14:57:28;6.77;;;3.30;;
7843;SDS011;3967;48.702;9.326;2023-01-01T14:59:57;5.70;;;3.60;;
7843;SDS011;3967;48.702;9.326;2023-01-01T15:02:35;4.37;;;2.63;;
7843;SDS011;3967;48.702;9.326;2023-01-01T15:05:23;7.80;;;3.33;;
7843;SDS011;3967;48.702;9.326;2023-01-01T15:08:01;4.37;;;3.07;;
7843;SDS011;3967;48.702;9.326;2023-01-01T15:10:30;4.93;;;2.60;;
7843;SDS011;3967;48.702;9.326;2023-01-01T15:13:03;4.60;;;3.30;;
7843;SDS011;3967;48.702;9.326;2023-01-01T15:18:02;4.20;;;2.90;;
7843;SDS011;3967;48.702;9.326;2023-01-01T15:20:30;3.83;;;2.67;;
7843;SDS011;3967;48.702;9.326;2023-01-01T15:22:57;4.10;;;2.80;;
7843;SDS011;3967;48.702;9.326;2023-01-01T15:25:33;5.47;;;2.90;;
7843;SDS011;3967;48.702;9.326;2023-01-01T15:28:01;3.87;;;2.80;;
7843;SDS011;3967;48.702;9.326;2023-01-01T15:30:31;7.43;;;2.80;;
7843;SDS011;3967;48.702;9.326;2023-01-01T15:33:13;4.50;;;2.80;;
7843;SDS011;3967;48.702;9.326;2023-01-01T15:35:47;5.73;;;3.30;;
7843;SDS011;3967;48.702;9.326;2023-01-01T15:38:26;4.13;;;3.03;;
7843;SDS011;3967;48.702;9.326;2023-01-01T15:40:59;5.07;;;3.10;;
7843;SDS011;3967;48.702;9.326;2023-01-01T15:43:46;4.03;;;3.20;;
7843;SDS011;3967;48.702;9.326;2023-01-01T15:46:18;4.53;;;3.70;;
7843;SDS011;3967;48.702;9.326;2023-01-01T15:48:47;4.17;;;3.77;;
7843;SDS011;3967;48.702;9.326;2023-01-01T15:51:18;5.33;;;3.17;;
7843;SDS011;3967;48.702;9.326;2023-01-01T15:53:57;4.47;;;3.10;;
7843;SDS011;3967;48.702;9.326;2023-01-01T15:56:30;4.43;;;3.00;;
7843;SDS011;3967;48.702;9.326;2023-01-01T16:01:45;6.80;;;4.10;;
7843;SDS011;3967;48.702;9.326;2023-01-01T16:06:54;4.97;;;3.70;;
7843;SDS011;3967;48.702;9.326;2023-01-01T16:09:23;4.80;;;3.10;;
7843;SDS011;3967;48.702;9.326;2023-01-01T16:11:50;7.07;;;3.37;;
7843;SDS011;3967;48.702;9.326;2023-01-01T16:14:18;5.20;;;3.33;;
7843;SDS011;3967;48.702;9.326;2023-01-01T16:16:49;4.87;;;3.00;;
7843;SDS011;3967;48.702;9.326;2023-01-01T16:19:20;7.03;;;3.40;;
7843;SDS011;3967;48.702;9.326;2023-01-01T16:21:48;6.03;;;3.47;;
7843;SDS011;3967;48.702;9.326;2023-01-01T16:24:15;3.87;;;2.87;;
7843;SDS011;3967;48.702;9.326;2023-01-01T16:26:43;6.87;;;3.07;;
7843;SDS011;3967;48.702;9.326;2023-01-01T16:29:11;6.43;;;3.13;;
7843;SDS011;3967;48.702;9.326;2023-01-01T16:31:38;5.47;;;3.37;;
7843;SDS011;3967;48.702;9.326;2023-01-01T16:34:06;3.67;;;2.93;;
7843;SDS011;3967;48.702;9.326;2023-01-01T16:36:34;5.63;;;3.53;;
7843;SDS011;3967;48.702;9.326;2023-01-01T16:39:00;6.20;;;3.50;;
7843;SDS011;3967;48.702;9.326;2023-01-01T16:41:27;5.23;;;3.50;;
7843;SDS011;3967;48.702;9.326;2023-01-01T16:43:55;4.53;;;2.97;;
7843;SDS011;3967;48.702;9.326;2023-01-01T16:46:22;7.40;;;3.87;;
7843;SDS011;3967;48.702;9.326;2023-01-01T16:48:49;5.53;;;3.20;;
7843;SDS011;3967;48.702;9.326;2023-01-01T16:51:27;4.53;;;3.17;;
7843;SDS011;3967;48.702;9.326;2023-01-01T16:53:55;6.37;;;3.70;;
7843;SDS011;3967;48.702;9.326;2023-01-01T16:56:22;6.00;;;2.63;;
7843;SDS011;3967;48.702;9.326;2023-01-01T16:58:49;4.57;;;3.10;;
7843;SDS011;3967;48.702;9.326;2023-01-01T17:01:25;5.87;;;3.37;;
7843;SDS011;3967;48.702;9.326;2023-01-01T17:03:52;4.20;;;2.90;;
7843;SDS011;3967;48.702;9.326;2023-01-01T17:06:18;3.77;;;3.00;;
7843;SDS011;3967;48.702;9.326;2023-01-01T17:08:45;4.43;;;3.00;;
7843;SDS011;3967;48.702;9.326;2023-01-01T17:11:13;9.57;;;3.13;;
7843;SDS011;3967;48.702;9.326;2023-01-01T17:13:43;3.90;;;3.17;;
7843;SDS011;3967;48.702;9.326;2023-01-01T17:16:11;6.13;;;3.43;;
7843;SDS011;3967;48.702;9.326;2023-01-01T17:18:47;5.30;;;4.10;;
7843;SDS011;3967;48.702;9.326;2023-01-01T17:21:37;4.57;;;3.17;;
7843;SDS011;3967;48.702;9.326;2023-01-01T17:24:04;4.40;;;3.60;;
7843;SDS011;3967;48.702;9.326;2023-01-01T17:26:33;7.70;;;3.37;;
7843;SDS011;3967;48.702;9.326;2023-01-01T17:29:02;3.40;;;3.10;;
7843;SDS011;3967;48.702;9.326;2023-01-01T17:31:30;6.43;;;3.50;;
7843;SDS011;3967;48.702;9.326;2023-01-01T17:33:57;3.97;;;3.40;;
7843;SDS011;3967;48.702;9.326;2023-01-01T17:36:24;3.27;;;2.97;;
7843;SDS011;3967;48.702;9.326;2023-01-01T17:38:54;5.80;;;3.10;;